Time;durP1;ratioP1;P1;durP2;ratioP2;P2;SDS_P1;SDS_P2;PMS_P1;PMS_P2;Temp;Humidity;BMP_temperature;BMP_pressure;BME280_temperature;BME280_humidity;BME280_pressure;Samples;Min_cycle;Max_cycle;Signal;HPM_P1;HPM_P2
2021/08/28 00:01:02;;;;;;;19.10;18.00;;;15.80;86.60;;;;;;5007819;28;20465;-73
2021/08/28 00:03:29;;;;;;;19.07;18.17;;;15.80;86.50;;;;;;5008957;28;20827;-73
2021/08/28 00:05:56;;;;;;;19.17;18.17;;;15.80;86.50;;;;;;5002349;28;20462;-73
2021/08/28 00:08:23;;;;;;;21.03;19.27;;;15.80;86.50;;;;;;5003111;28;20831;-72
2021/08/28 00:10:51;;;;;;;19.57;18.50;;;15.80;86.60;;;;;;4998145;28;20902;-73
2021/08/28 00:13:18;;;;;;;19.00;18.10;;;15.70;86.80;;;;;;4998955;28;20463;-72
2021/08/28 00:15:45;;;;;;;19.57;18.47;;;15.80;86.80;;;;;;5007144;28;20614;-73
2021/08/28 00:18:12;;;;;;;19.37;18.37;;;15.70;87.00;;;;;;4996317;28;20484;-73
2021/08/28 00:20:40;;;;;;;18.70;17.80;;;15.70;86.90;;;;;;5003512;28;20483;-73
2021/08/28 00:23:07;;;;;;;19.50;18.37;;;15.80;86.80;;;;;;5009319;28;20549;-72
2021/08/28 00:25:36;;;;;;;19.83;18.80;;;15.80;86.70;;;;;;5005399;28;20973;-72
2021/08/28 00:28:05;;;;;;;19.30;18.20;;;15.70;86.80;;;;;;5005183;28;20829;-72
2021/08/28 00:30:32;;;;;;;20.03;18.77;;;15.70;87.10;;;;;;4999629;28;20928;-74
2021/08/28 00:33:09;;;;;;;19.40;18.30;;;15.60;87.00;;;;;;5001151;28;20788;-73
2021/08/28 00:35:35;;;;;;;20.10;18.83;;;15.60;87.40;;;;;;5004051;28;20543;-73
2021/08/28 00:38:03;;;;;;;19.80;18.67;;;15.60;87.40;;;;;;4998015;28;20490;-73
2021/08/28 00:40:30;;;;;;;20.00;18.80;;;15.70;87.30;;;;;;5004154;28;20461;-73
2021/08/28 00:42:57;;;;;;;18.57;17.67;;;15.70;87.00;;;;;;5001760;28;21038;-74
2021/08/28 00:45:26;;;;;;;19.57;18.40;;;15.70;87.00;;;;;;4994696;28;20511;-73
2021/08/28 00:47:56;;;;;;;18.90;18.00;;;15.70;86.70;;;;;;5005498;28;21192;-73
2021/08/28 00:50:23;;;;;;;19.20;18.20;;;15.70;86.80;;;;;;4994447;28;20464;-74
2021/08/28 00:52:51;;;;;;;19.90;18.80;;;15.70;86.80;;;;;;4999559;28;20460;-73
2021/08/28 00:55:18;;;;;;;19.63;18.63;;;15.70;86.30;;;;;;5006282;28;20523;-73
2021/08/28 00:57:45;;;;;;;19.67;18.57;;;15.70;86.30;;;;;;5006077;28;21069;-73
2021/08/28 01:00:12;;;;;;;19.70;18.70;;;15.60;86.80;;;;;;4996747;28;20459;-74
2021/08/28 01:02:44;;;;;;;20.37;19.17;;;15.60;86.90;;;;;;4994103;28;20454;-74
2021/08/28 01:05:17;;;;;;;19.80;18.50;;;15.60;86.80;;;;;;5001767;28;20464;-74
2021/08/28 01:07:52;;;;;;;20.37;18.97;;;15.60;86.70;;;;;;5005546;28;20498;-74
2021/08/28 01:10:21;;;;;;;20.27;19.03;;;15.60;86.80;;;;;;5004439;28;20464;-74
2021/08/28 01:12:50;;;;;;;19.63;18.60;;;15.60;87.00;;;;;;5003991;28;20592;-73
2021/08/28 01:15:22;;;;;;;20.10;19.10;;;15.50;87.20;;;;;;4994854;28;20547;-74
2021/08/28 01:17:52;;;;;;;19.80;18.60;;;15.50;86.90;;;;;;4997823;28;20484;-73
2021/08/28 01:20:26;;;;;;;19.53;18.33;;;15.60;86.90;;;;;;4999461;28;20550;-74
2021/08/28 01:22:55;;;;;;;20.27;19.17;;;15.60;86.80;;;;;;5005991;28;20821;-73
2021/08/28 01:25:23;;;;;;;20.40;19.13;;;15.60;86.80;;;;;;5007010;28;20461;-74
2021/08/28 01:27:57;;;;;;;20.00;19.00;;;15.60;86.30;;;;;;5005943;28;20576;-72
2021/08/28 01:30:26;;;;;;;20.10;18.90;;;15.60;86.30;;;;;;4999910;28;20961;-72
2021/08/28 01:32:53;;;;;;;19.83;18.83;;;15.60;86.10;;;;;;4997448;28;20496;-72
2021/08/28 01:35:21;;;;;;;20.73;19.53;;;15.50;86.10;;;;;;4999418;28;20543;-73
2021/08/28 01:37:50;;;;;;;19.93;18.93;;;15.50;86.50;;;;;;5002056;28;20493;-73
2021/08/28 01:40:17;;;;;;;19.93;18.83;;;15.50;86.80;;;;;;5000896;28;21175;-73
2021/08/28 01:42:46;;;;;;;20.60;19.40;;;15.50;86.50;;;;;;5002115;28;20534;-73
2021/08/28 01:45:15;;;;;;;20.60;19.50;;;15.50;86.10;;;;;;4996878;28;20477;-74
2021/08/28 01:47:44;;;;;;;20.37;19.27;;;15.50;86.30;;;;;;5002231;28;20555;-74
2021/08/28 01:50:12;;;;;;;20.03;19.03;;;15.50;86.60;;;;;;5000941;28;20905;-74
2021/08/28 01:52:39;;;;;;;20.40;19.30;;;15.50;86.70;;;;;;5006002;28;20479;-74
2021/08/28 01:55:07;;;;;;;20.00;18.90;;;15.50;87.10;;;;;;5004822;28;20556;-73
2021/08/28 01:57:36;;;;;;;20.00;19.07;;;15.50;87.20;;;;;;4999878;28;20476;-73
2021/08/28 02:00:04;;;;;;;20.20;19.10;;;15.50;86.90;;;;;;5001841;28;20467;-74
2021/08/28 02:02:31;;;;;;;20.80;19.73;;;15.50;86.70;;;;;;4995412;28;20852;-73
2021/08/28 02:04:59;;;;;;;20.67;19.47;;;15.60;86.60;;;;;;4999241;28;20472;-73
2021/08/28 02:07:35;;;;;;;20.50;19.40;;;15.50;86.70;;;;;;4999278;28;20823;-73
2021/08/28 02:10:13;;;;;;;20.47;19.33;;;15.50;87.30;;;;;;5001854;28;20461;-74
2021/08/28 02:12:42;;;;;;;20.67;19.57;;;15.50;87.00;;;;;;5002230;28;20494;-74
2021/08/28 02:15:11;;;;;;;21.90;20.80;;;15.60;86.60;;;;;;5003144;28;20465;-74
2021/08/28 02:17:42;;;;;;;20.80;19.70;;;15.50;86.30;;;;;;4994608;28;20478;-73
2021/08/28 02:20:15;;;;;;;21.70;20.30;;;15.50;86.80;;;;;;5002768;28;20480;-74
2021/08/28 02:22:48;;;;;;;21.60;20.40;;;15.40;87.30;;;;;;5003796;28;20545;-74
2021/08/28 02:25:21;;;;;;;21.47;20.07;;;15.50;87.10;;;;;;4993150;28;20469;-73
2021/08/28 02:27:52;;;;;;;22.00;20.80;;;15.50;87.00;;;;;;4997698;28;20576;-74
2021/08/28 02:30:20;;;;;;;22.23;21.03;;;15.40;86.90;;;;;;5002139;28;20468;-73
2021/08/28 02:32:51;;;;;;;21.63;20.40;;;15.40;87.10;;;;;;5005082;28;20481;-74
2021/08/28 02:35:20;;;;;;;22.97;21.27;;;15.50;86.80;;;;;;4992833;28;20470;-73
2021/08/28 02:37:49;;;;;;;22.60;21.20;;;15.50;86.80;;;;;;5004598;28;20473;-73
2021/08/28 02:40:20;;;;;;;22.43;21.10;;;15.50;86.80;;;;;;5006980;28;20461;-73
2021/08/28 02:42:48;;;;;;;23.57;22.10;;;15.40;86.90;;;;;;4996635;28;20477;-74
2021/08/28 02:45:17;;;;;;;22.73;21.33;;;15.50;86.80;;;;;;4991912;28;20979;-73
2021/08/28 02:47:44;;;;;;;22.77;21.47;;;15.50;86.90;;;;;;4998101;28;20539;-73
2021/08/28 02:50:15;;;;;;;23.20;21.60;;;15.40;87.10;;;;;;4998156;28;20461;-73
2021/08/28 02:52:45;;;;;;;22.77;21.40;;;15.30;87.60;;;;;;4990655;28;20895;-73
2021/08/28 02:55:14;;;;;;;25.43;23.70;;;15.40;87.50;;;;;;5002482;28;20468;-72
2021/08/28 02:57:44;;;;;;;24.90;23.30;;;15.40;87.10;;;;;;5005259;28;20892;-72
2021/08/28 03:00:13;;;;;;;23.43;21.93;;;15.40;87.30;;;;;;5000305;28;20461;-73
2021/08/28 03:02:41;;;;;;;25.33;23.63;;;15.40;87.50;;;;;;5003719;28;20468;-73
2021/08/28 03:05:12;;;;;;;26.30;24.70;;;15.40;87.60;;;;;;5004169;28;20467;-72
2021/08/28 03:07:40;;;;;;;26.27;24.57;;;15.40;87.60;;;;;;5005510;28;21025;-74
2021/08/28 03:10:10;;;;;;;26.30;24.70;;;15.20;87.90;;;;;;5006201;28;20477;-74
2021/08/28 03:12:38;;;;;;;28.07;26.17;;;15.20;88.30;;;;;;5003962;28;20488;-73
2021/08/28 03:15:06;;;;;;;27.00;25.10;;;15.20;88.40;;;;;;4997462;28;21030;-73
2021/08/28 03:17:33;;;;;;;25.43;23.83;;;15.10;88.70;;;;;;5006145;28;20502;-73
2021/08/28 03:20:02;;;;;;;28.23;26.13;;;15.10;89.00;;;;;;4995829;28;20576;-74
2021/08/28 03:22:29;;;;;;;27.80;25.90;;;15.10;89.10;;;;;;5007253;28;20463;-73
2021/08/28 03:24:56;;;;;;;28.07;25.97;;;15.00;89.20;;;;;;5004918;28;20979;-74
2021/08/28 03:27:25;;;;;;;28.50;26.50;;;15.00;89.50;;;;;;5002184;28;20466;-73
2021/08/28 03:29:53;;;;;;;29.00;26.90;;;15.00;89.40;;;;;;4993848;28;20813;-73
2021/08/28 03:32:20;;;;;;;30.60;28.40;;;15.10;89.20;;;;;;4997081;28;20496;-73
2021/08/28 03:34:48;;;;;;;28.40;26.27;;;15.10;88.90;;;;;;5003349;28;20536;-73
2021/08/28 03:37:15;;;;;;;29.20;27.10;;;15.10;89.10;;;;;;4994130;28;20448;-73
2021/08/28 03:39:43;;;;;;;29.30;27.10;;;15.20;89.00;;;;;;5003658;28;20946;-74
2021/08/28 03:42:10;;;;;;;28.77;26.73;;;15.20;88.90;;;;;;5007889;28;20823;-73
2021/08/28 03:44:42;;;;;;;28.50;26.40;;;15.10;88.90;;;;;;4999434;28;20460;-73
2021/08/28 03:47:09;;;;;;;29.83;27.73;;;15.10;89.10;;;;;;5011091;28;20464;-73
2021/08/28 03:49:36;;;;;;;31.10;28.60;;;15.10;89.30;;;;;;5007763;28;20478;-74
2021/08/28 03:52:03;;;;;;;30.90;28.70;;;15.10;88.90;;;;;;5004926;28;20982;-73
2021/08/28 03:54:31;;;;;;;31.37;28.97;;;15.10;89.10;;;;;;4999129;28;20553;-73
2021/08/28 03:56:58;;;;;;;32.13;29.73;;;15.00;89.40;;;;;;5009913;28;20463;-73
2021/08/28 03:59:24;;;;;;;30.67;28.57;;;15.00;89.40;;;;;;5004122;28;20518;-74
2021/08/28 04:01:53;;;;;;;29.40;27.40;;;15.00;89.60;;;;;;4997486;28;20468;-74
2021/08/28 04:04:20;;;;;;;29.70;27.70;;;15.00;89.60;;;;;;4999558;28;20466;-73
2021/08/28 04:06:47;;;;;;;32.97;30.37;;;15.00;89.70;;;;;;5007893;28;20473;-72
2021/08/28 04:09:14;;;;;;;32.60;30.00;;;15.10;89.50;;;;;;4992804;28;20479;-72
2021/08/28 04:11:43;;;;;;;31.03;28.93;;;15.10;89.30;;;;;;4999741;28;20458;-73
2021/08/28 04:14:10;;;;;;;31.60;29.27;;;15.00;89.90;;;;;;5006745;28;20461;-73
2021/08/28 04:16:37;;;;;;;33.40;30.90;;;15.00;90.20;;;;;;5003607;28;20463;-72
2021/08/28 04:19:05;;;;;;;33.37;30.83;;;15.00;90.20;;;;;;5003175;28;20480;-72
2021/08/28 04:21:32;;;;;;;31.57;29.13;;;15.00;90.20;;;;;;4999145;28;20931;-73
2021/08/28 04:23:59;;;;;;;30.10;28.00;;;15.00;90.40;;;;;;5001154;28;20831;-73
2021/08/28 04:26:25;;;;;;;32.10;29.80;;;15.00;90.30;;;;;;5007863;28;20556;-73
2021/08/28 04:28:54;;;;;;;34.07;31.47;;;15.10;90.20;;;;;;5007814;28;20485;-73
2021/08/28 04:31:21;;;;;;;33.10;30.80;;;15.10;90.40;;;;;;5009011;28;20491;-73
2021/08/28 04:33:49;;;;;;;34.17;31.27;;;15.00;90.20;;;;;;5006487;28;21038;-73
2021/08/28 04:36:17;;;;;;;33.53;30.97;;;14.90;90.70;;;;;;5003040;28;20968;-73
2021/08/28 04:38:44;;;;;;;33.50;31.00;;;14.80;91.00;;;;;;4998770;28;20477;-73
2021/08/28 04:41:11;;;;;;;35.27;32.67;;;14.90;91.20;;;;;;5010664;28;20479;-73
2021/08/28 04:43:38;;;;;;;32.43;30.13;;;14.90;91.10;;;;;;5001440;28;20453;-73
2021/08/28 04:46:05;;;;;;;34.63;32.10;;;14.80;91.40;;;;;;5000413;28;20468;-73
2021/08/28 04:48:32;;;;;;;32.90;30.60;;;14.80;91.50;;;;;;4999524;28;20568;-73
2021/08/28 04:50:59;;;;;;;33.70;31.10;;;14.90;91.10;;;;;;4999607;28;20464;-72
2021/08/28 04:53:27;;;;;;;33.17;30.87;;;14.80;91.30;;;;;;4994123;28;20485;-73
2021/08/28 04:55:54;;;;;;;34.27;31.70;;;14.80;91.50;;;;;;4999868;28;20511;-73
2021/08/28 04:58:21;;;;;;;35.40;32.67;;;14.80;91.20;;;;;;5004053;28;20503;-73
2021/08/28 05:00:48;;;;;;;32.93;30.50;;;14.60;91.60;;;;;;5008395;28;20557;-73
2021/08/28 05:03:15;;;;;;;32.77;30.37;;;14.60;92.20;;;;;;4997803;28;20450;-73
2021/08/28 05:05:42;;;;;;;35.00;32.20;;;14.70;92.10;;;;;;5002795;28;21021;-72
2021/08/28 05:08:08;;;;;;;32.70;30.40;;;14.80;91.80;;;;;;4993865;28;20479;-72
2021/08/28 05:10:37;;;;;;;35.90;33.07;;;14.80;91.60;;;;;;4994365;28;20580;-72
2021/08/28 05:13:04;;;;;;;34.70;32.00;;;14.90;90.60;;;;;;5007834;28;20556;-72
2021/08/28 05:15:31;;;;;;;37.50;34.80;;;14.80;90.90;;;;;;4996868;28;20462;-72
2021/08/28 05:17:58;;;;;;;37.13;34.40;;;14.70;91.80;;;;;;5005360;28;20479;-72
2021/08/28 05:20:24;;;;;;;32.07;29.77;;;14.80;91.90;;;;;;4991893;28;20464;-72
2021/08/28 05:22:51;;;;;;;35.90;33.30;;;14.80;91.50;;;;;;5004711;28;20527;-72
2021/08/28 05:25:18;;;;;;;33.13;30.53;;;14.90;90.90;;;;;;4995850;28;20469;-72
2021/08/28 05:27:46;;;;;;;34.53;31.90;;;14.90;90.90;;;;;;4995007;28;20483;-73
2021/08/28 05:30:13;;;;;;;33.93;31.53;;;14.90;90.90;;;;;;4996074;28;20885;-73
2021/08/28 05:32:43;;;;;;;33.17;30.57;;;14.90;90.90;;;;;;4998170;28;20480;-72
2021/08/28 05:35:11;;;;;;;36.10;33.23;;;15.00;90.10;;;;;;4999687;28;20470;-73
2021/08/28 05:37:37;;;;;;;32.70;30.30;;;15.10;89.90;;;;;;5000954;28;20508;-72
2021/08/28 05:40:06;;;;;;;32.40;30.07;;;15.10;90.00;;;;;;5002313;28;20549;-73
2021/08/28 05:42:33;;;;;;;33.13;30.80;;;15.00;90.10;;;;;;5005819;28;20822;-73
2021/08/28 05:45:01;;;;;;;33.60;31.20;;;15.00;90.20;;;;;;4997827;28;20461;-72
2021/08/28 05:47:28;;;;;;;33.30;30.80;;;15.00;90.40;;;;;;5004474;28;20989;-71
2021/08/28 05:49:55;;;;;;;33.10;30.67;;;15.20;89.70;;;;;;4995582;28;20985;-71
2021/08/28 05:52:22;;;;;;;33.07;30.57;;;15.30;89.10;;;;;;4997470;28;20581;-71
2021/08/28 05:54:49;;;;;;;31.70;29.60;;;15.30;88.80;;;;;;4995032;28;20561;-71
2021/08/28 05:57:16;;;;;;;32.70;30.27;;;15.40;88.60;;;;;;5002196;28;20592;-71
2021/08/28 05:59:43;;;;;;;30.17;28.17;;;15.30;88.50;;;;;;4992121;28;20460;-72
2021/08/28 06:02:12;;;;;;;32.30;30.10;;;15.20;89.40;;;;;;5002820;28;20537;-73
2021/08/28 06:04:39;;;;;;;31.63;29.30;;;15.30;89.30;;;;;;5002530;28;21105;-72
2021/08/28 06:07:06;;;;;;;30.60;28.40;;;15.40;88.80;;;;;;5008046;28;20464;-73
2021/08/28 06:09:33;;;;;;;32.27;30.07;;;15.40;88.60;;;;;;5005362;28;21013;-73
2021/08/28 06:12:00;;;;;;;33.33;31.10;;;15.30;88.50;;;;;;5007452;28;20456;-72
2021/08/28 06:14:26;;;;;;;32.10;30.00;;;15.40;88.90;;;;;;5003461;28;20486;-72
2021/08/28 06:16:53;;;;;;;31.97;29.70;;;15.50;88.20;;;;;;5008374;28;20890;-72
2021/08/28 06:19:21;;;;;;;29.83;27.87;;;15.50;88.20;;;;;;5002765;28;20480;-72
2021/08/28 06:21:48;;;;;;;31.90;29.60;;;15.50;88.30;;;;;;5007061;28;20540;-74
2021/08/28 06:24:15;;;;;;;30.00;28.00;;;15.60;88.20;;;;;;5007124;28;20547;-72
2021/08/28 06:26:42;;;;;;;32.00;29.83;;;15.70;87.40;;;;;;5001316;28;20493;-73
2021/08/28 06:29:09;;;;;;;32.53;30.27;;;15.70;87.10;;;;;;5005619;28;20483;-73
2021/08/28 06:31:36;;;;;;;32.00;29.90;;;15.70;86.70;;;;;;5007204;28;20519;-73
2021/08/28 06:34:03;;;;;;;30.40;28.20;;;15.70;86.70;;;;;;5000038;28;20477;-73
2021/08/28 06:36:31;;;;;;;30.30;28.00;;;15.60;87.10;;;;;;5005629;28;20469;-74
2021/08/28 06:38:58;;;;;;;29.53;27.53;;;15.70;87.30;;;;;;4995286;28;20568;-74
2021/08/28 06:41:25;;;;;;;32.83;30.53;;;15.70;86.90;;;;;;5005404;28;20489;-73
2021/08/28 06:43:52;;;;;;;30.50;28.50;;;15.80;86.00;;;;;;5001739;28;20452;-73
2021/08/28 06:46:18;;;;;;;29.83;27.43;;;15.90;86.00;;;;;;5004480;28;20460;-73
2021/08/28 06:48:45;;;;;;;32.70;30.50;;;16.00;85.90;;;;;;5001384;28;20481;-73
2021/08/28 06:51:12;;;;;;;30.67;28.60;;;16.10;85.50;;;;;;4999062;28;20541;-73
2021/08/28 06:53:40;;;;;;;29.77;27.77;;;16.10;84.90;;;;;;5002443;28;20487;-73
2021/08/28 06:56:07;;;;;;;31.67;29.67;;;15.90;85.10;;;;;;5002382;28;20466;-72
2021/08/28 06:58:34;;;;;;;31.30;28.97;;;15.80;85.70;;;;;;4990573;28;21115;-71
2021/08/28 07:01:01;;;;;;;30.70;28.80;;;15.80;85.90;;;;;;5003801;28;20689;-72
2021/08/28 07:03:28;;;;;;;30.97;28.80;;;16.00;85.50;;;;;;5002151;28;20469;-71
2021/08/28 07:05:55;;;;;;;30.33;28.33;;;16.10;84.50;;;;;;5004512;28;20469;-72
2021/08/28 07:08:23;;;;;;;29.67;27.97;;;16.20;84.20;;;;;;4995543;28;20481;-76
2021/08/28 07:10:51;;;;;;;30.20;28.40;;;16.30;84.00;;;;;;4997607;28;20581;-74
2021/08/28 07:13:21;;;;;;;30.13;28.20;;;16.50;83.60;;;;;;4999208;28;20499;-74
2021/08/28 07:15:48;;;;;;;32.07;30.10;;;16.80;82.80;;;;;;5002624;28;20497;-74
2021/08/28 07:18:16;;;;;;;30.90;28.90;;;17.00;81.60;;;;;;5007450;28;21195;-72
2021/08/28 07:20:43;;;;;;;30.33;28.30;;;17.00;81.30;;;;;;4997838;28;20458;-72
2021/08/28 07:23:10;;;;;;;32.80;30.70;;;16.90;81.10;;;;;;5006863;28;20833;-72
2021/08/28 07:25:38;;;;;;;29.93;28.03;;;16.80;81.40;;;;;;5011746;28;20471;-73
2021/08/28 07:28:07;;;;;;;29.90;28.00;;;16.80;80.90;;;;;;5011918;28;20484;-72
2021/08/28 07:30:34;;;;;;;31.13;29.27;;;16.70;80.90;;;;;;4998916;28;20576;-73
2021/08/28 07:33:02;;;;;;;30.13;28.23;;;16.70;80.50;;;;;;5004458;28;20476;-72
2021/08/28 07:35:30;;;;;;;28.60;26.90;;;16.80;79.90;;;;;;4996965;28;20460;-72
2021/08/28 07:37:57;;;;;;;28.40;26.60;;;16.80;79.20;;;;;;5005878;28;20571;-73
2021/08/28 07:40:24;;;;;;;27.70;26.17;;;16.70;79.60;;;;;;5004745;28;20474;-73
2021/08/28 07:42:52;;;;;;;27.90;26.30;;;16.70;79.50;;;;;;5002445;28;20465;-73
2021/08/28 07:45:20;;;;;;;27.40;25.97;;;16.90;78.60;;;;;;5003380;28;20476;-73
2021/08/28 07:47:47;;;;;;;27.17;25.50;;;17.10;78.10;;;;;;5009943;28;21011;-73
2021/08/28 07:50:14;;;;;;;26.77;25.07;;;17.20;76.60;;;;;;5010439;28;20554;-73
2021/08/28 07:52:42;;;;;;;26.33;24.87;;;17.10;76.50;;;;;;5002014;28;20481;-73
2021/08/28 07:55:11;;;;;;;27.87;26.27;;;17.00;76.50;;;;;;4999051;28;20479;-73
2021/08/28 07:57:38;;;;;;;28.60;27.00;;;17.00;76.60;;;;;;5010226;28;20474;-73
2021/08/28 08:00:07;;;;;;;26.23;24.87;;;16.90;76.10;;;;;;4996360;28;20492;-73
2021/08/28 08:02:36;;;;;;;27.87;26.37;;;16.80;77.00;;;;;;5001799;28;20568;-73
2021/08/28 08:05:04;;;;;;;29.07;27.47;;;16.90;76.20;;;;;;5011644;28;20480;-73
2021/08/28 08:07:31;;;;;;;26.77;25.30;;;17.00;75.90;;;;;;5008416;28;20459;-72
2021/08/28 08:09:58;;;;;;;26.87;25.47;;;17.10;75.70;;;;;;5001943;28;20553;-75
2021/08/28 08:12:25;;;;;;;26.37;24.87;;;17.10;75.80;;;;;;5008727;28;20501;-71
2021/08/28 08:14:52;;;;;;;26.97;25.57;;;17.30;75.40;;;;;;5009771;28;20482;-69
2021/08/28 08:17:19;;;;;;;26.87;25.37;;;17.40;75.10;;;;;;5006759;28;20465;-72
2021/08/28 08:19:47;;;;;;;25.70;24.30;;;17.50;74.60;;;;;;5008169;28;21156;-72
2021/08/28 08:22:16;;;;;;;26.70;25.30;;;17.60;73.90;;;;;;5009095;28;20543;-72
2021/08/28 08:24:43;;;;;;;26.80;25.40;;;17.50;73.20;;;;;;5006851;28;20804;-71
2021/08/28 08:27:10;;;;;;;26.20;24.77;;;17.30;73.20;;;;;;5013491;28;20577;-72
2021/08/28 08:29:37;;;;;;;27.53;25.93;;;17.10;73.30;;;;;;5018920;28;20481;-73
2021/08/28 08:32:04;;;;;;;25.97;24.67;;;17.00;74.10;;;;;;5013239;28;20466;-72
2021/08/28 08:34:31;;;;;;;27.20;25.43;;;17.10;74.40;;;;;;5007463;28;20491;-73
2021/08/28 08:36:59;;;;;;;27.37;25.87;;;17.20;74.20;;;;;;5018484;28;20466;-73
2021/08/28 08:39:26;;;;;;;26.77;25.27;;;17.40;74.00;;;;;;5001634;28;20891;-72
2021/08/28 08:41:56;;;;;;;26.13;24.73;;;17.40;74.40;;;;;;4998667;28;20460;-73
2021/08/28 08:44:23;;;;;;;27.90;26.30;;;17.40;74.80;;;;;;5006375;28;20470;-72
2021/08/28 08:46:51;;;;;;;27.20;25.60;;;17.50;74.60;;;;;;5002625;28;20456;-73
2021/08/28 08:49:19;;;;;;;25.93;24.53;;;17.40;73.40;;;;;;5001352;28;20475;-72
2021/08/28 08:51:47;;;;;;;26.27;24.80;;;17.50;72.70;;;;;;5002284;28;20506;-73
2021/08/28 08:54:15;;;;;;;24.33;23.13;;;17.40;72.80;;;;;;4994514;28;20576;-71
2021/08/28 08:56:42;;;;;;;25.67;24.30;;;17.40;73.10;;;;;;5011685;28;20466;-71
2021/08/28 08:59:09;;;;;;;25.33;24.03;;;17.40;73.10;;;;;;5002937;28;20603;-72
2021/08/28 09:01:36;;;;;;;25.90;24.43;;;17.50;73.20;;;;;;5001945;28;20958;-71
2021/08/28 09:04:03;;;;;;;27.30;25.80;;;17.70;73.10;;;;;;5009902;28;20860;-72
2021/08/28 09:06:30;;;;;;;26.17;24.77;;;17.60;73.10;;;;;;5007790;28;20453;-72
2021/08/28 09:08:58;;;;;;;25.50;24.20;;;17.50;73.80;;;;;;5001309;28;20849;-71
2021/08/28 09:11:30;;;;;;;26.07;24.73;;;17.50;73.40;;;;;;5003184;28;20998;-71
2021/08/28 09:14:16;;;;;;;25.33;23.93;;;17.60;73.40;;;;;;5004485;28;21005;-71
2021/08/28 09:16:43;;;;;;;24.70;23.50;;;17.60;73.20;;;;;;5002907;28;20462;-71
2021/08/28 09:19:10;;;;;;;26.30;25.00;;;17.60;72.70;;;;;;5006215;28;21021;-71
2021/08/28 09:21:37;;;;;;;25.50;24.20;;;17.50;72.90;;;;;;5001180;28;20461;-71
2021/08/28 09:24:06;;;;;;;25.33;23.93;;;17.30;73.70;;;;;;5011508;28;20464;-71
2021/08/28 09:26:36;;;;;;;24.43;23.13;;;17.20;74.70;;;;;;5013751;28;20457;-71
2021/08/28 09:29:05;;;;;;;24.50;23.30;;;17.20;75.20;;;;;;5007905;28;20508;-71
2021/08/28 09:31:40;;;;;;;25.37;24.03;;;17.40;74.90;;;;;;5018645;28;20475;-71
2021/08/28 09:34:23;;;;;;;25.23;24.00;;;17.30;74.90;;;;;;5000059;28;20512;-71
2021/08/28 09:36:55;;;;;;;26.70;25.20;;;17.30;75.30;;;;;;4999692;28;20548;-71
2021/08/28 09:39:35;;;;;;;27.70;26.40;;;17.40;75.00;;;;;;5006044;28;20819;-71
2021/08/28 09:42:04;;;;;;;26.03;24.73;;;17.30;74.80;;;;;;5006319;28;20471;-74
2021/08/28 09:44:36;;;;;;;27.07;25.57;;;17.20;75.40;;;;;;4992248;28;20488;-73
2021/08/28 09:47:12;;;;;;;28.13;26.73;;;17.10;75.00;;;;;;4997866;28;20470;-73
2021/08/28 09:49:41;;;;;;;27.30;26.00;;;17.10;76.00;;;;;;4989328;28;20930;-74
2021/08/28 09:52:14;;;;;;;24.73;23.53;;;16.90;77.10;;;;;;4995914;28;20663;-73
2021/08/28 09:54:42;;;;;;;25.60;24.20;;;17.00;76.70;;;;;;4995170;28;20490;-72
2021/08/28 09:57:10;;;;;;;24.93;23.43;;;17.00;76.50;;;;;;4992228;28;20476;-73
2021/08/28 09:59:37;;;;;;;24.80;23.50;;;17.00;75.80;;;;;;4996030;28;20476;-72
2021/08/28 10:02:07;;;;;;;26.37;25.07;;;17.00;75.60;;;;;;4999916;28;20912;-72
2021/08/28 10:04:51;;;;;;;25.33;23.93;;;16.90;76.20;;;;;;4996934;28;20548;-72
2021/08/28 10:07:24;;;;;;;25.17;23.90;;;16.60;76.90;;;;;;5008964;28;21009;-71
2021/08/28 10:09:55;;;;;;;25.03;23.73;;;16.60;77.00;;;;;;4997885;28;20491;-71
2021/08/28 10:12:24;;;;;;;23.10;21.90;;;16.50;77.10;;;;;;4994395;28;20460;-71
2021/08/28 10:14:54;;;;;;;23.80;22.50;;;16.30;78.00;;;;;;4996727;28;20487;-71
2021/08/28 10:17:22;;;;;;;25.63;24.33;;;16.30;79.70;;;;;;4994044;28;20487;-71
2021/08/28 10:19:51;;;;;;;24.63;23.33;;;16.40;78.50;;;;;;4996472;28;20961;-71
2021/08/28 10:22:21;;;;;;;24.57;23.33;;;16.30;77.70;;;;;;5003652;28;20719;-71
2021/08/28 10:24:50;;;;;;;24.53;23.23;;;16.20;78.70;;;;;;4995026;28;20449;-71
2021/08/28 10:27:17;;;;;;;24.60;23.40;;;16.20;79.30;;;;;;4998537;28;20468;-71
2021/08/28 10:29:46;;;;;;;23.60;22.40;;;16.30;79.50;;;;;;5006387;28;20457;-71
2021/08/28 10:32:14;;;;;;;24.87;23.67;;;16.30;79.60;;;;;;4992308;28;20532;-71
2021/08/28 10:34:41;;;;;;;23.50;22.40;;;16.20;79.90;;;;;;4996492;28;20485;-72
2021/08/28 10:37:08;;;;;;;23.73;22.50;;;16.00;80.50;;;;;;4979367;28;21035;-70
2021/08/28 10:39:36;;;;;;;25.03;23.70;;;15.90;80.30;;;;;;4982364;28;20481;-71
2021/08/28 10:42:04;;;;;;;22.70;21.63;;;16.10;79.90;;;;;;4982074;28;20453;-71
2021/08/28 10:44:31;;;;;;;24.30;23.10;;;16.30;79.50;;;;;;4983580;28;20986;-71
2021/08/28 10:46:59;;;;;;;23.63;22.43;;;16.40;77.70;;;;;;4979778;28;20468;-71
2021/08/28 10:49:27;;;;;;;23.73;22.53;;;16.50;77.20;;;;;;4982653;28;20478;-71
2021/08/28 10:51:56;;;;;;;22.80;21.70;;;16.80;77.30;;;;;;4979926;28;20522;-71
2021/08/28 10:54:29;;;;;;;23.47;22.37;;;16.80;77.80;;;;;;4981419;28;21129;-72
2021/08/28 10:56:58;;;;;;;24.10;22.90;;;16.90;76.80;;;;;;4983437;28;20485;-70
2021/08/28 10:59:27;;;;;;;23.20;22.10;;;16.90;74.70;;;;;;4984188;28;21026;-71
2021/08/28 11:02:00;;;;;;;23.60;22.50;;;17.10;75.40;;;;;;5006475;28;20477;-71
2021/08/28 11:04:32;;;;;;;24.17;22.97;;;17.40;73.90;;;;;;4991251;28;20465;-73
2021/08/28 11:07:18;;;;;;;25.53;24.33;;;17.70;73.10;;;;;;4993514;28;20472;-72
2021/08/28 11:10:03;;;;;;;24.63;23.43;;;17.90;73.00;;;;;;5000509;28;20545;-73
2021/08/28 11:12:43;;;;;;;24.80;23.53;;;18.10;70.90;;;;;;5000820;28;21206;-72
2021/08/28 11:15:41;;;;;;;24.67;23.47;;;18.30;71.20;;;;;;4999150;28;20476;-72
2021/08/28 11:18:15;;;;;;;24.77;23.47;;;18.60;69.90;;;;;;5006205;28;20480;-72
2021/08/28 11:20:44;;;;;;;23.13;21.93;;;18.80;69.40;;;;;;4994035;28;20452;-72
2021/08/28 11:23:14;;;;;;;26.10;24.80;;;19.00;69.00;;;;;;4996727;28;20551;-70
2021/08/28 11:25:43;;;;;;;25.47;24.27;;;19.10;68.60;;;;;;4998767;28;21073;-71
2021/08/28 11:28:11;;;;;;;25.77;24.47;;;19.30;67.20;;;;;;4993731;28;20481;-71
2021/08/28 11:30:53;;;;;;;26.13;24.73;;;19.60;67.00;;;;;;5006674;28;20440;-71
2021/08/28 11:33:28;;;;;;;25.10;23.90;;;19.30;66.20;;;;;;5005332;28;20986;-70
2021/08/28 11:35:58;;;;;;;24.63;23.43;;;19.40;66.60;;;;;;5001599;28;20480;-71
2021/08/28 11:38:40;;;;;;;25.37;24.17;;;19.50;66.50;;;;;;5000639;28;20487;-71
2021/08/28 11:41:09;;;;;;;25.70;24.40;;;19.70;66.60;;;;;;5005779;28;20540;-71
2021/08/28 11:43:39;;;;;;;24.13;22.93;;;19.90;66.30;;;;;;4992539;28;20466;-71
2021/08/28 11:46:09;;;;;;;23.70;22.60;;;20.00;63.90;;;;;;5003771;28;20461;-71
2021/08/28 11:48:39;;;;;;;24.57;23.47;;;19.80;64.70;;;;;;5004550;28;20987;-70
2021/08/28 11:51:12;;;;;;;25.90;24.50;;;19.80;64.90;;;;;;5007002;28;20464;-72
2021/08/28 11:53:40;;;;;;;24.30;23.10;;;20.00;64.30;;;;;;4996403;28;20545;-71
2021/08/28 11:56:11;;;;;;;24.00;22.80;;;20.10;64.90;;;;;;5003618;28;20481;-71
2021/08/28 11:58:58;;;;;;;24.20;23.00;;;20.10;64.40;;;;;;4998068;28;20575;-71
2021/08/28 12:01:30;;;;;;;24.80;23.60;;;20.30;63.60;;;;;;5005067;28;20487;-71
2021/08/28 12:04:00;;;;;;;24.67;23.47;;;20.40;63.30;;;;;;5007695;28;20865;-71
2021/08/28 12:06:28;;;;;;;23.83;22.70;;;20.40;62.40;;;;;;5010884;28;20463;-71
2021/08/28 12:08:56;;;;;;;24.33;23.13;;;20.50;61.10;;;;;;5005655;28;20488;-73
2021/08/28 12:11:24;;;;;;;25.20;24.00;;;20.50;61.10;;;;;;5011545;28;20502;-72
2021/08/28 12:13:53;;;;;;;24.73;23.73;;;20.30;61.60;;;;;;4997418;28;20457;-72
2021/08/28 12:16:21;;;;;;;23.60;22.50;;;20.20;61.90;;;;;;5004092;28;20498;-72
2021/08/28 12:19:06;;;;;;;24.10;22.90;;;20.00;62.10;;;;;;5005398;28;20510;-71
2021/08/28 12:21:34;;;;;;;23.63;22.53;;;19.90;62.20;;;;;;5000828;28;20456;-71
2021/08/28 12:24:15;;;;;;;24.23;23.03;;;19.80;62.10;;;;;;5007835;28;20806;-71
2021/08/28 12:26:43;;;;;;;24.13;22.93;;;19.60;63.20;;;;;;5002414;28;20464;-70
2021/08/28 12:29:10;;;;;;;24.60;23.40;;;19.50;63.20;;;;;;5003765;28;20559;-72
2021/08/28 12:31:38;;;;;;;23.83;22.63;;;19.40;63.10;;;;;;5011043;28;20453;-71
2021/08/28 12:34:19;;;;;;;23.30;22.20;;;19.50;62.80;;;;;;5001228;28;20532;-72
2021/08/28 12:36:48;;;;;;;24.57;23.37;;;19.90;62.40;;;;;;5006037;28;21057;-70